createdAt,value
2023-03-11T00:00:46.962Z,100.00
2023-03-11T00:05:50.539Z,100.00
2023-03-11T00:10:58.714Z,100.00
2023-03-11T00:16:02.344Z,100.00
2023-03-11T00:21:06.180Z,100.00
2023-03-11T00:26:10.725Z,100.00
2023-03-11T00:31:14.660Z,100.00
2023-03-11T00:36:24.528Z,100.00
2023-03-11T00:41:30.266Z,100.00
2023-03-11T00:46:33.462Z,100.00
2023-03-11T00:51:36.811Z,100.00
2023-03-11T00:56:41.751Z,100.00
2023-03-11T01:01:45.353Z,100.00
2023-03-11T01:06:48.701Z,100.00
2023-03-11T01:11:54.221Z,100.00
2023-03-11T01:16:57.516Z,100.00
2023-03-11T01:22:00.811Z,100.00
2023-03-11T01:27:05.734Z,100.00
2023-03-11T01:32:09.384Z,100.00
2023-03-11T01:37:13.060Z,100.00
2023-03-11T01:42:17.574Z,100.00
2023-03-11T01:47:39.705Z,100.00
2023-03-11T01:52:45.893Z,100.00
2023-03-11T01:57:52.883Z,100.00
2023-03-11T02:03:01.067Z,100.00
2023-03-11T02:08:09.169Z,100.00
2023-03-11T02:13:14.089Z,100.00
2023-03-11T02:18:20.372Z,100.00
2023-03-11T02:23:30.244Z,100.00
2023-03-11T02:28:37.789Z,98.96
2023-03-11T02:33:44.102Z,100.00
2023-03-11T02:38:47.625Z,100.00
2023-03-11T02:43:52.362Z,100.00
2023-03-11T02:48:58.521Z,100.00
2023-03-11T02:54:05.769Z,100.00
2023-03-11T02:59:12.186Z,100.00
2023-03-11T03:04:15.470Z,100.00
2023-03-11T03:09:18.843Z,100.00
2023-03-11T03:14:23.390Z,100.00
2023-03-11T03:19:26.834Z,100.00
2023-03-11T03:24:31.002Z,100.00
2023-03-11T03:29:35.777Z,100.00
2023-03-11T03:34:39.282Z,100.00
2023-03-11T03:39:42.393Z,100.00
2023-03-11T03:44:49.044Z,100.00
2023-03-11T03:49:52.491Z,100.00
2023-03-11T03:54:55.924Z,100.00
2023-03-11T04:00:00.872Z,98.29
2023-03-11T04:05:04.491Z,99.96
2023-03-11T04:10:09.392Z,100.00
2023-03-11T04:15:15.284Z,100.00
2023-03-11T04:20:20.803Z,99.58
2023-03-11T04:25:26.972Z,99.14
2023-03-11T04:30:32.198Z,98.34
2023-03-11T04:35:35.872Z,99.41
2023-03-11T04:40:39.687Z,98.97
2023-03-11T04:45:44.494Z,100.00
2023-03-11T04:50:49.062Z,100.00
2023-03-11T04:55:53.887Z,100.00
2023-03-11T05:00:58.869Z,100.00
2023-03-11T05:06:02.656Z,100.00
2023-03-11T05:11:07.169Z,100.00
2023-03-11T05:16:12.059Z,100.00
2023-03-11T05:21:15.918Z,100.00
2023-03-11T05:26:19.289Z,100.00
2023-03-11T05:31:25.130Z,100.00
2023-03-11T05:36:28.454Z,100.00
2023-03-11T05:41:32.417Z,100.00
2023-03-11T05:46:37.768Z,100.00
2023-03-11T05:51:42.798Z,100.00
2023-03-11T05:56:47.459Z,99.54
2023-03-11T06:01:52.717Z,100.00
2023-03-11T06:06:56.288Z,100.00
2023-03-11T06:12:02.101Z,100.00
2023-03-11T06:17:15.302Z,100.00
2023-03-11T06:22:18.853Z,100.00
2023-03-11T06:27:22.028Z,100.00
2023-03-11T06:32:29.598Z,100.00
2023-03-11T06:37:33.309Z,100.00
2023-03-11T06:42:37.343Z,100.00
2023-03-11T06:47:43.546Z,100.00
2023-03-11T06:52:47.286Z,100.00
2023-03-11T06:57:50.930Z,100.00
2023-03-11T07:02:55.672Z,100.00
2023-03-11T07:08:00.169Z,100.00
2023-03-11T07:13:03.577Z,100.00
2023-03-11T07:18:09.010Z,100.00
2023-03-11T07:23:12.457Z,98.71
2023-03-11T07:28:16.155Z,95.94
2023-03-11T07:33:21.269Z,98.16
2023-03-11T07:38:24.667Z,96.89
2023-03-11T07:43:28.154Z,92.01
2023-03-11T07:48:32.904Z,92.16
2023-03-11T07:53:36.883Z,95.13
2023-03-11T07:58:40.539Z,92.95
2023-03-11T08:03:46.714Z,96.22
2023-03-11T08:08:51.770Z,98.03
2023-03-11T08:13:55.339Z,94.07
2023-03-11T08:19:00.033Z,96.00
2023-03-11T08:24:06.589Z,94.62
2023-03-11T08:29:11.258Z,92.47
2023-03-11T08:34:16.193Z,90.55
2023-03-11T08:39:19.534Z,85.21
2023-03-11T08:44:22.764Z,87.48
2023-03-11T08:49:27.551Z,88.13
2023-03-11T08:54:31.149Z,76.51
2023-03-11T08:59:34.438Z,76.20
2023-03-11T09:04:38.996Z,75.21
2023-03-11T09:09:42.368Z,73.14
2023-03-11T09:14:45.765Z,73.88
2023-03-11T09:19:50.459Z,75.94
2023-03-11T09:24:53.836Z,75.44
2023-03-11T09:29:57.149Z,72.72
2023-03-11T09:35:02.034Z,79.98
2023-03-11T09:40:06.146Z,71.17
2023-03-11T09:45:17.671Z,73.01
2023-03-11T09:50:31.411Z,72.84
2023-03-11T09:55:40.008Z,72.32
2023-03-11T10:00:44.228Z,75.32
2023-03-11T10:05:49.368Z,68.98
2023-03-11T10:11:00.198Z,70.13
2023-03-11T10:16:14.851Z,70.53
2023-03-11T10:21:33.708Z,71.50
2023-03-11T10:26:42.885Z,69.37
2023-03-11T10:31:49.991Z,70.47
2023-03-11T10:37:01.915Z,70.33
2023-03-11T10:42:06.910Z,68.55
2023-03-11T10:47:18.165Z,73.37
2023-03-11T10:52:23.047Z,77.19
2023-03-11T10:57:28.876Z,79.42
2023-03-11T11:02:33.687Z,78.63
2023-03-11T11:07:41.328Z,77.77
2023-03-11T11:12:59.081Z,79.84
2023-03-11T11:18:04.711Z,79.26
2023-03-11T11:23:27.417Z,76.51
2023-03-11T11:28:30.762Z,78.79
2023-03-11T11:33:40.086Z,79.74
2023-03-11T11:38:45.039Z,75.24
2023-03-11T11:43:51.217Z,73.92
2023-03-11T11:49:13.092Z,79.29
2023-03-11T11:54:24.311Z,77.20
2023-03-11T11:59:28.808Z,76.60
2023-03-11T12:04:48.255Z,76.21
2023-03-11T12:09:57.725Z,72.78
2023-03-11T12:15:12.085Z,77.29
2023-03-11T12:20:20.928Z,73.58
2023-03-11T12:25:35.599Z,69.82
2023-03-11T12:30:48.151Z,74.80
2023-03-11T12:35:56.179Z,73.12
2023-03-11T12:41:06.978Z,74.96
2023-03-11T12:46:11.514Z,71.38
2023-03-11T12:51:40.752Z,69.59
2023-03-11T12:56:54.400Z,72.01
2023-03-11T13:02:18.641Z,70.20
2023-03-11T13:07:40.412Z,68.90
2023-03-11T13:12:47.119Z,67.01
2023-03-11T13:17:59.559Z,65.99
2023-03-11T13:23:22.363Z,65.55
2023-03-11T13:28:54.292Z,70.80
2023-03-11T13:34:02.177Z,69.40
2023-03-11T13:39:21.532Z,69.48
2023-03-11T13:44:32.325Z,71.88
2023-03-11T13:49:44.097Z,68.55
2023-03-11T13:54:50.121Z,70.33
2023-03-11T13:59:56.040Z,70.67
2023-03-11T14:05:05.246Z,71.78
2023-03-11T14:10:27.656Z,74.51
2023-03-11T14:15:44.428Z,71.63
2023-03-11T14:20:49.488Z,73.27
2023-03-11T14:26:00.494Z,72.53
2023-03-11T14:31:06.291Z,69.60
2023-03-11T14:36:15.957Z,67.06
2023-03-11T14:41:19.472Z,67.88
2023-03-11T14:46:29.467Z,67.23
2023-03-11T14:51:36.716Z,69.11
2023-03-11T14:56:44.980Z,70.67
2023-03-11T15:01:51.878Z,70.83
2023-03-11T15:06:55.999Z,68.35
2023-03-11T15:12:01.050Z,69.02
2023-03-11T15:17:39.518Z,69.25
2023-03-11T15:22:42.599Z,68.26
2023-03-11T15:27:46.224Z,67.45
2023-03-11T15:32:51.929Z,65.29
2023-03-11T15:38:14.517Z,63.04
2023-03-11T15:43:27.661Z,62.61
2023-03-11T15:48:32.535Z,63.36
2023-03-11T15:53:35.887Z,60.80
2023-03-11T15:58:39.335Z,61.40
2023-03-11T16:03:44.127Z,60.74
2023-03-11T16:08:47.405Z,61.26
2023-03-11T16:13:50.612Z,62.17
2023-03-11T16:18:55.681Z,60.48
2023-03-11T16:23:59.089Z,62.30
2023-03-11T16:29:16.648Z,60.81
2023-03-11T16:34:23.617Z,61.50
2023-03-11T16:39:27.137Z,63.73
2023-03-11T16:44:30.377Z,63.53
2023-03-11T16:49:35.128Z,69.48
2023-03-11T16:54:38.730Z,71.40
2023-03-11T16:59:42.206Z,77.44
2023-03-11T17:04:46.793Z,78.51
2023-03-11T17:09:49.964Z,82.88
2023-03-11T17:14:53.801Z,85.53
2023-03-11T17:19:58.420Z,88.01
2023-03-11T17:25:02.129Z,90.49
2023-03-11T17:30:07.634Z,94.23
2023-03-11T17:35:12.339Z,92.43
2023-03-11T17:40:15.624Z,94.85
2023-03-11T17:45:18.874Z,95.53
2023-03-11T17:50:23.348Z,97.07
2023-03-11T17:55:26.508Z,100.00
2023-03-11T18:00:29.978Z,100.00
2023-03-11T18:05:36.857Z,100.00
2023-03-11T18:10:40.031Z,100.00
2023-03-11T18:15:43.219Z,100.00
2023-03-11T18:20:48.260Z,100.00
2023-03-11T18:25:52.925Z,100.00
2023-03-11T18:30:56.769Z,100.00
2023-03-11T18:36:01.687Z,100.00
2023-03-11T18:41:05.093Z,100.00
2023-03-11T18:46:09.517Z,100.00
2023-03-11T18:51:14.498Z,100.00
2023-03-11T18:56:19.449Z,100.00
2023-03-11T19:01:23.061Z,100.00
2023-03-11T19:06:29.368Z,100.00
2023-03-11T19:11:32.690Z,100.00
2023-03-11T19:16:35.919Z,100.00
2023-03-11T19:21:40.632Z,100.00
2023-03-11T19:26:46.087Z,100.00
2023-03-11T19:31:49.463Z,100.00
2023-03-11T19:36:54.379Z,100.00
2023-03-11T19:41:59.060Z,100.00
2023-03-11T19:47:02.494Z,100.00
2023-03-11T19:52:09.746Z,100.00
2023-03-11T19:57:13.149Z,100.00
2023-03-11T20:02:16.461Z,100.00
2023-03-11T20:07:22.052Z,100.00
2023-03-11T20:12:25.544Z,100.00
2023-03-11T20:17:28.927Z,100.00
2023-03-11T20:22:34.232Z,100.00
2023-03-11T20:27:37.571Z,100.00
2023-03-11T20:32:41.074Z,100.00
2023-03-11T20:37:46.165Z,100.00
2023-03-11T20:42:49.463Z,100.00
2023-03-11T20:47:53.756Z,100.00
2023-03-11T20:52:59.458Z,100.00
2023-03-11T20:58:03.078Z,100.00
2023-03-11T21:03:06.533Z,100.00
2023-03-11T21:08:11.186Z,100.00
2023-03-11T21:13:15.396Z,100.00
2023-03-11T21:18:20.624Z,100.00
2023-03-11T21:23:26.956Z,100.00
2023-03-11T21:28:32.431Z,100.00
2023-03-11T21:33:36.943Z,100.00
2023-03-11T21:38:42.801Z,100.00
2023-03-11T21:43:47.871Z,100.00
2023-03-11T21:48:51.864Z,100.00
2023-03-11T21:53:57.571Z,100.00
2023-03-11T21:59:01.363Z,100.00
2023-03-11T22:04:06.030Z,100.00
2023-03-11T22:09:12.159Z,100.00
2023-03-11T22:14:15.926Z,100.00
2023-03-11T22:19:19.537Z,100.00
2023-03-11T22:24:24.844Z,100.00
2023-03-11T22:29:30.260Z,100.00
2023-03-11T22:34:33.919Z,100.00
2023-03-11T22:39:38.644Z,100.00
2023-03-11T22:44:42.126Z,100.00
2023-03-11T22:49:45.846Z,100.00
2023-03-11T22:54:50.557Z,100.00
2023-03-11T22:59:54.849Z,100.00
2023-03-11T23:04:58.295Z,100.00
2023-03-11T23:10:03.071Z,100.00
2023-03-11T23:15:10.698Z,100.00
2023-03-11T23:20:17.327Z,100.00
2023-03-11T23:25:22.125Z,100.00
2023-03-11T23:30:28.247Z,100.00
2023-03-11T23:35:32.196Z,100.00
2023-03-11T23:40:36.939Z,100.00
2023-03-11T23:45:40.683Z,100.00
2023-03-11T23:50:46.696Z,100.00
2023-03-11T23:55:57.211Z,100.00
